sensor_id;sensor_type;location;lat;lon;timestamp;temperature;humidity
1800;DHT22;919;48.274;12.292;2024-03-25T00:01:03;4.50;99.90
1800;DHT22;919;48.274;12.292;2024-03-25T00:03:29;4.50;99.90
1800;DHT22;919;48.274;12.292;2024-03-25T00:05:56;4.50;99.90
1800;DHT22;919;48.274;12.292;2024-03-25T00:08:22;4.60;99.90
1800;DHT22;919;48.274;12.292;2024-03-25T00:10:49;4.50;99.90
1800;DHT22;919;48.274;12.292;2024-03-25T00:13:16;4.60;99.90
1800;DHT22;919;48.274;12.292;2024-03-25T00:15:42;4.60;99.90
1800;DHT22;919;48.274;12.292;2024-03-25T00:18:10;4.60;99.90
1800;DHT22;919;48.274;12.292;2024-03-25T00:20:37;4.60;99.90
1800;DHT22;919;48.274;12.292;2024-03-25T00:23:03;4.60;99.90
1800;DHT22;919;48.274;12.292;2024-03-25T00:25:30;4.60;99.90
1800;DHT22;919;48.274;12.292;2024-03-25T00:27:56;4.60;99.90
1800;DHT22;919;48.274;12.292;2024-03-25T00:30:23;4.60;99.90
1800;DHT22;919;48.274;12.292;2024-03-25T00:32:49;4.60;99.90
1800;DHT22;919;48.274;12.292;2024-03-25T00:35:17;4.60;99.90
1800;DHT22;919;48.274;12.292;2024-03-25T00:37:43;4.60;99.90
1800;DHT22;919;48.274;12.292;2024-03-25T00:40:10;4.60;99.90
1800;DHT22;919;48.274;12.292;2024-03-25T00:42:37;4.60;99.90
1800;DHT22;919;48.274;12.292;2024-03-25T00:45:04;4.70;99.90
1800;DHT22;919;48.274;12.292;2024-03-25T00:47:31;4.70;99.90
1800;DHT22;919;48.274;12.292;2024-03-25T00:49:58;4.70;99.90
1800;DHT22;919;48.274;12.292;2024-03-25T00:52:25;4.70;99.90
1800;DHT22;919;48.274;12.292;2024-03-25T00:54:51;4.60;99.90
1800;DHT22;919;48.274;12.292;2024-03-25T00:57:17;4.60;99.90
1800;DHT22;919;48.274;12.292;2024-03-25T00:59:44;4.60;99.90
1800;DHT22;919;48.274;12.292;2024-03-25T01:02:10;4.60;99.90
1800;DHT22;919;48.274;12.292;2024-03-25T01:04:37;4.60;99.90
1800;DHT22;919;48.274;12.292;2024-03-25T01:07:03;4.50;99.90
1800;DHT22;919;48.274;12.292;2024-03-25T01:09:31;4.50;99.90
1800;DHT22;919;48.274;12.292;2024-03-25T01:11:57;4.60;99.90
1800;DHT22;919;48.274;12.292;2024-03-25T01:14:24;4.60;99.90
1800;DHT22;919;48.274;12.292;2024-03-25T01:16:49;4.50;99.90
1800;DHT22;919;48.274;12.292;2024-03-25T01:19:16;4.50;99.90
1800;DHT22;919;48.274;12.292;2024-03-25T01:21:42;4.50;99.90
1800;DHT22;919;48.274;12.292;2024-03-25T01:24:09;4.50;99.90
1800;DHT22;919;48.274;12.292;2024-03-25T01:26:36;4.50;99.90
1800;DHT22;919;48.274;12.292;2024-03-25T01:29:03;4.50;99.90
1800;DHT22;919;48.274;12.292;2024-03-25T01:31:29;4.50;99.90
1800;DHT22;919;48.274;12.292;2024-03-25T01:33:55;4.50;99.90
1800;DHT22;919;48.274;12.292;2024-03-25T01:36:21;4.50;99.90
1800;DHT22;919;48.274;12.292;2024-03-25T01:38:48;4.50;99.90
1800;DHT22;919;48.274;12.292;2024-03-25T01:41:14;4.60;99.90
1800;DHT22;919;48.274;12.292;2024-03-25T01:43:42;4.60;99.90
1800;DHT22;919;48.274;12.292;2024-03-25T01:46:09;4.60;99.90
1800;DHT22;919;48.274;12.292;2024-03-25T01:48:36;4.50;99.90
1800;DHT22;919;48.274;12.292;2024-03-25T01:51:02;4.50;99.90
1800;DHT22;919;48.274;12.292;2024-03-25T01:53:29;4.60;99.90
1800;DHT22;919;48.274;12.292;2024-03-25T01:55:56;4.50;99.90
1800;DHT22;919;48.274;12.292;2024-03-25T01:58:25;4.60;99.90
1800;DHT22;919;48.274;12.292;2024-03-25T02:00:53;4.60;99.90
1800;DHT22;919;48.274;12.292;2024-03-25T02:03:20;4.50;99.90
1800;DHT22;919;48.274;12.292;2024-03-25T02:05:47;4.50;99.90
1800;DHT22;919;48.274;12.292;2024-03-25T02:08:17;4.50;99.90
1800;DHT22;919;48.274;12.292;2024-03-25T02:10:44;4.50;99.90
1800;DHT22;919;48.274;12.292;2024-03-25T02:13:11;4.50;99.90
1800;DHT22;919;48.274;12.292;2024-03-25T02:15:38;4.40;99.90
1800;DHT22;919;48.274;12.292;2024-03-25T02:18:06;4.50;99.90
1800;DHT22;919;48.274;12.292;2024-03-25T02:20:32;4.50;99.90
1800;DHT22;919;48.274;12.292;2024-03-25T02:22:59;4.50;99.90
1800;DHT22;919;48.274;12.292;2024-03-25T02:25:25;4.50;99.90
1800;DHT22;919;48.274;12.292;2024-03-25T02:27:53;4.50;99.90
1800;DHT22;919;48.274;12.292;2024-03-25T02:30:18;4.50;99.90
1800;DHT22;919;48.274;12.292;2024-03-25T02:32:45;4.50;99.90
1800;DHT22;919;48.274;12.292;2024-03-25T02:35:13;4.50;99.90
1800;DHT22;919;48.274;12.292;2024-03-25T02:37:42;4.50;99.90
1800;DHT22;919;48.274;12.292;2024-03-25T02:40:09;4.50;99.90
1800;DHT22;919;48.274;12.292;2024-03-25T02:42:37;4.50;99.90
1800;DHT22;919;48.274;12.292;2024-03-25T02:45:07;4.50;99.90
1800;DHT22;919;48.274;12.292;2024-03-25T02:47:34;4.50;99.90
1800;DHT22;919;48.274;12.292;2024-03-25T02:50:00;4.50;99.90
1800;DHT22;919;48.274;12.292;2024-03-25T02:52:27;4.50;99.90
1800;DHT22;919;48.274;12.292;2024-03-25T02:54:52;4.50;99.90
1800;DHT22;919;48.274;12.292;2024-03-25T02:57:20;4.50;99.90
1800;DHT22;919;48.274;12.292;2024-03-25T02:59:46;4.50;99.90
1800;DHT22;919;48.274;12.292;2024-03-25T03:02:14;4.50;99.90
1800;DHT22;919;48.274;12.292;2024-03-25T03:04:40;4.40;99.90
1800;DHT22;919;48.274;12.292;2024-03-25T03:07:06;4.40;99.90
1800;DHT22;919;48.274;12.292;2024-03-25T03:09:32;4.40;99.90
1800;DHT22;919;48.274;12.292;2024-03-25T03:11:59;4.40;99.90
1800;DHT22;919;48.274;12.292;2024-03-25T03:14:24;4.40;99.90
1800;DHT22;919;48.274;12.292;2024-03-25T03:16:51;4.40;99.90
1800;DHT22;919;48.274;12.292;2024-03-25T03:19:21;4.40;99.90
1800;DHT22;919;48.274;12.292;2024-03-25T03:21:48;4.50;99.90
1800;DHT22;919;48.274;12.292;2024-03-25T03:24:13;4.40;99.90
1800;DHT22;919;48.274;12.292;2024-03-25T03:26:40;4.40;99.90
1800;DHT22;919;48.274;12.292;2024-03-25T03:29:06;4.40;99.90
1800;DHT22;919;48.274;12.292;2024-03-25T03:31:33;4.40;99.90
1800;DHT22;919;48.274;12.292;2024-03-25T03:33:59;4.40;99.90
1800;DHT22;919;48.274;12.292;2024-03-25T03:36:27;4.40;99.90
1800;DHT22;919;48.274;12.292;2024-03-25T03:38:53;4.40;99.90
1800;DHT22;919;48.274;12.292;2024-03-25T03:41:20;4.40;99.90
1800;DHT22;919;48.274;12.292;2024-03-25T03:43:46;4.40;99.90
1800;DHT22;919;48.274;12.292;2024-03-25T03:46:13;4.50;99.90
1800;DHT22;919;48.274;12.292;2024-03-25T03:48:38;4.40;99.90
1800;DHT22;919;48.274;12.292;2024-03-25T03:51:05;4.40;99.90
1800;DHT22;919;48.274;12.292;2024-03-25T03:53:33;4.40;99.90
1800;DHT22;919;48.274;12.292;2024-03-25T03:56:02;4.40;99.90
1800;DHT22;919;48.274;12.292;2024-03-25T03:58:29;4.40;99.90
1800;DHT22;919;48.274;12.292;2024-03-25T04:00:56;4.40;99.90
1800;DHT22;919;48.274;12.292;2024-03-25T04:03:22;4.50;99.90
1800;DHT22;919;48.274;12.292;2024-03-25T04:05:49;4.40;99.90
1800;DHT22;919;48.274;12.292;2024-03-25T04:08:15;4.40;99.90
1800;DHT22;919;48.274;12.292;2024-03-25T04:10:44;4.40;99.90
1800;DHT22;919;48.274;12.292;2024-03-25T04:13:10;4.40;99.90
1800;DHT22;919;48.274;12.292;2024-03-25T04:15:38;4.40;99.90
1800;DHT22;919;48.274;12.292;2024-03-25T04:18:05;4.40;99.90
1800;DHT22;919;48.274;12.292;2024-03-25T04:20:36;4.40;99.90
1800;DHT22;919;48.274;12.292;2024-03-25T04:23:02;4.40;99.90
1800;DHT22;919;48.274;12.292;2024-03-25T04:25:29;4.40;99.90
1800;DHT22;919;48.274;12.292;2024-03-25T04:27:56;4.40;99.90
1800;DHT22;919;48.274;12.292;2024-03-25T04:30:22;4.40;99.90
1800;DHT22;919;48.274;12.292;2024-03-25T04:32:48;4.40;99.90
1800;DHT22;919;48.274;12.292;2024-03-25T04:35:15;4.40;99.90
1800;DHT22;919;48.274;12.292;2024-03-25T04:37:40;4.40;99.90
1800;DHT22;919;48.274;12.292;2024-03-25T04:40:07;4.40;99.90
1800;DHT22;919;48.274;12.292;2024-03-25T04:42:33;4.40;99.90
1800;DHT22;919;48.274;12.292;2024-03-25T04:45:00;4.40;99.90
1800;DHT22;919;48.274;12.292;2024-03-25T04:47:26;4.30;99.90
1800;DHT22;919;48.274;12.292;2024-03-25T04:49:52;4.30;99.90
1800;DHT22;919;48.274;12.292;2024-03-25T04:52:17;4.40;99.90
1800;DHT22;919;48.274;12.292;2024-03-25T04:54:44;4.40;99.90
1800;DHT22;919;48.274;12.292;2024-03-25T04:57:09;4.30;99.90
1800;DHT22;919;48.274;12.292;2024-03-25T04:59:35;4.40;99.90
1800;DHT22;919;48.274;12.292;2024-03-25T05:02:03;4.40;99.90
1800;DHT22;919;48.274;12.292;2024-03-25T05:04:28;4.40;99.90
1800;DHT22;919;48.274;12.292;2024-03-25T05:06:54;4.30;99.90
1800;DHT22;919;48.274;12.292;2024-03-25T05:09:20;4.40;99.90
1800;DHT22;919;48.274;12.292;2024-03-25T05:11:46;4.40;99.90
1800;DHT22;919;48.274;12.292;2024-03-25T05:14:12;4.40;99.90
1800;DHT22;919;48.274;12.292;2024-03-25T05:16:37;4.50;99.90
1800;DHT22;919;48.274;12.292;2024-03-25T05:19:05;4.50;99.90
1800;DHT22;919;48.274;12.292;2024-03-25T05:21:30;4.50;99.90
1800;DHT22;919;48.274;12.292;2024-03-25T05:23:56;4.40;99.90
1800;DHT22;919;48.274;12.292;2024-03-25T05:26:22;4.40;99.90
1800;DHT22;919;48.274;12.292;2024-03-25T05:28:52;4.40;99.90
1800;DHT22;919;48.274;12.292;2024-03-25T05:31:18;4.40;99.90
1800;DHT22;919;48.274;12.292;2024-03-25T05:33:44;4.40;99.90
1800;DHT22;919;48.274;12.292;2024-03-25T05:36:11;4.40;99.90
1800;DHT22;919;48.274;12.292;2024-03-25T05:38:37;4.40;99.90
1800;DHT22;919;48.274;12.292;2024-03-25T05:41:03;4.40;99.90
1800;DHT22;919;48.274;12.292;2024-03-25T05:43:29;4.40;99.90
1800;DHT22;919;48.274;12.292;2024-03-25T05:45:55;4.40;99.90
1800;DHT22;919;48.274;12.292;2024-03-25T05:48:21;4.40;99.90
1800;DHT22;919;48.274;12.292;2024-03-25T05:50:57;4.40;99.90
1800;DHT22;919;48.274;12.292;2024-03-25T05:53:25;4.40;99.90
1800;DHT22;919;48.274;12.292;2024-03-25T05:55:50;4.40;99.90
1800;DHT22;919;48.274;12.292;2024-03-25T05:58:16;4.40;99.90
1800;DHT22;919;48.274;12.292;2024-03-25T06:00:42;4.40;99.90
1800;DHT22;919;48.274;12.292;2024-03-25T06:03:08;4.40;99.90
1800;DHT22;919;48.274;12.292;2024-03-25T06:05:33;4.40;99.90
1800;DHT22;919;48.274;12.292;2024-03-25T06:07:59;4.30;99.90
1800;DHT22;919;48.274;12.292;2024-03-25T06:10:26;4.30;99.90
1800;DHT22;919;48.274;12.292;2024-03-25T06:12:52;4.30;99.90
1800;DHT22;919;48.274;12.292;2024-03-25T06:15:18;4.30;99.90
1800;DHT22;919;48.274;12.292;2024-03-25T06:17:44;4.40;99.90
1800;DHT22;919;48.274;12.292;2024-03-25T06:20:10;4.40;99.90
1800;DHT22;919;48.274;12.292;2024-03-25T06:22:36;4.40;99.90
1800;DHT22;919;48.274;12.292;2024-03-25T06:25:02;4.40;99.90
1800;DHT22;919;48.274;12.292;2024-03-25T06:27:29;4.30;99.90
1800;DHT22;919;48.274;12.292;2024-03-25T06:29:55;4.30;99.90
1800;DHT22;919;48.274;12.292;2024-03-25T06:32:21;4.30;99.90
1800;DHT22;919;48.274;12.292;2024-03-25T06:35:04;4.30;99.90
1800;DHT22;919;48.274;12.292;2024-03-25T06:37:30;4.30;99.90
1800;DHT22;919;48.274;12.292;2024-03-25T06:39:56;4.40;99.90
1800;DHT22;919;48.274;12.292;2024-03-25T06:42:22;4.50;99.90
1800;DHT22;919;48.274;12.292;2024-03-25T06:44:49;4.70;99.90
1800;DHT22;919;48.274;12.292;2024-03-25T06:47:15;4.80;99.90
1800;DHT22;919;48.274;12.292;2024-03-25T06:49:41;4.90;99.90
1800;DHT22;919;48.274;12.292;2024-03-25T06:52:06;4.90;99.90
1800;DHT22;919;48.274;12.292;2024-03-25T06:54:32;4.90;99.90
1800;DHT22;919;48.274;12.292;2024-03-25T06:56:58;5.00;99.90
1800;DHT22;919;48.274;12.292;2024-03-25T06:59:24;5.10;99.90
1800;DHT22;919;48.274;12.292;2024-03-25T07:01:51;5.20;99.90
1800;DHT22;919;48.274;12.292;2024-03-25T07:04:17;5.30;99.90
1800;DHT22;919;48.274;12.292;2024-03-25T07:06:43;5.40;99.90
1800;DHT22;919;48.274;12.292;2024-03-25T07:09:08;5.40;99.90
1800;DHT22;919;48.274;12.292;2024-03-25T07:11:34;5.40;99.90
1800;DHT22;919;48.274;12.292;2024-03-25T07:14:00;5.50;99.90
1800;DHT22;919;48.274;12.292;2024-03-25T07:16:26;5.60;99.90
1800;DHT22;919;48.274;12.292;2024-03-25T07:18:53;5.70;99.90
1800;DHT22;919;48.274;12.292;2024-03-25T07:21:19;6.00;99.90
1800;DHT22;919;48.274;12.292;2024-03-25T07:23:45;6.10;99.90
1800;DHT22;919;48.274;12.292;2024-03-25T07:26:11;6.10;99.90
1800;DHT22;919;48.274;12.292;2024-03-25T07:28:36;6.20;99.90
1800;DHT22;919;48.274;12.292;2024-03-25T07:31:02;6.10;99.90
1800;DHT22;919;48.274;12.292;2024-03-25T07:33:28;6.10;99.90
1800;DHT22;919;48.274;12.292;2024-03-25T07:35:55;6.20;99.90
1800;DHT22;919;48.274;12.292;2024-03-25T07:38:21;6.30;99.90
1800;DHT22;919;48.274;12.292;2024-03-25T07:40:47;6.40;99.90
1800;DHT22;919;48.274;12.292;2024-03-25T07:43:13;6.50;99.90
1800;DHT22;919;48.274;12.292;2024-03-25T07:45:39;6.40;99.90
1800;DHT22;919;48.274;12.292;2024-03-25T07:48:05;6.40;99.90
1800;DHT22;919;48.274;12.292;2024-03-25T07:50:31;6.40;99.90
1800;DHT22;919;48.274;12.292;2024-03-25T07:52:58;6.30;99.90
1800;DHT22;919;48.274;12.292;2024-03-25T07:55:24;6.30;99.90
1800;DHT22;919;48.274;12.292;2024-03-25T07:57:50;6.40;99.90
1800;DHT22;919;48.274;12.292;2024-03-25T08:00:16;6.40;99.90
1800;DHT22;919;48.274;12.292;2024-03-25T08:02:42;6.30;99.90
1800;DHT22;919;48.274;12.292;2024-03-25T08:05:08;6.30;99.90
1800;DHT22;919;48.274;12.292;2024-03-25T08:07:34;6.50;99.90
1800;DHT22;919;48.274;12.292;2024-03-25T08:10:01;6.50;99.90
1800;DHT22;919;48.274;12.292;2024-03-25T08:12:27;6.60;99.90
1800;DHT22;919;48.274;12.292;2024-03-25T08:14:53;6.60;99.90
1800;DHT22;919;48.274;12.292;2024-03-25T08:17:19;6.80;99.90
1800;DHT22;919;48.274;12.292;2024-03-25T08:19:45;6.80;99.90
1800;DHT22;919;48.274;12.292;2024-03-25T08:22:10;7.00;99.90
1800;DHT22;919;48.274;12.292;2024-03-25T08:24:36;7.00;99.90
1800;DHT22;919;48.274;12.292;2024-03-25T08:27:04;7.10;99.90
1800;DHT22;919;48.274;12.292;2024-03-25T08:29:29;7.30;99.90
1800;DHT22;919;48.274;12.292;2024-03-25T08:31:55;7.60;99.90
1800;DHT22;919;48.274;12.292;2024-03-25T08:34:21;7.50;99.90
1800;DHT22;919;48.274;12.292;2024-03-25T08:36:47;7.30;99.90
1800;DHT22;919;48.274;12.292;2024-03-25T08:39:13;7.10;99.90
1800;DHT22;919;48.274;12.292;2024-03-25T08:41:38;7.10;99.90
1800;DHT22;919;48.274;12.292;2024-03-25T08:44:06;7.10;99.90
1800;DHT22;919;48.274;12.292;2024-03-25T08:46:31;7.20;99.90
1800;DHT22;919;48.274;12.292;2024-03-25T08:48:58;7.20;99.90
1800;DHT22;919;48.274;12.292;2024-03-25T08:51:24;7.30;99.90
1800;DHT22;919;48.274;12.292;2024-03-25T08:53:49;7.50;99.90
1800;DHT22;919;48.274;12.292;2024-03-25T08:56:15;7.50;99.90
1800;DHT22;919;48.274;12.292;2024-03-25T08:58:41;7.40;99.90
1800;DHT22;919;48.274;12.292;2024-03-25T09:01:08;7.40;99.90
1800;DHT22;919;48.274;12.292;2024-03-25T09:03:34;7.50;99.90
1800;DHT22;919;48.274;12.292;2024-03-25T09:06:00;7.50;99.90
1800;DHT22;919;48.274;12.292;2024-03-25T09:08:26;7.60;99.90
1800;DHT22;919;48.274;12.292;2024-03-25T09:10:51;7.70;99.90
1800;DHT22;919;48.274;12.292;2024-03-25T09:13:29;7.70;99.90
1800;DHT22;919;48.274;12.292;2024-03-25T09:15:55;7.90;99.90
1800;DHT22;919;48.274;12.292;2024-03-25T09:18:22;8.10;99.90
1800;DHT22;919;48.274;12.292;2024-03-25T09:20:48;8.20;99.90
1800;DHT22;919;48.274;12.292;2024-03-25T09:23:14;8.20;99.90
1800;DHT22;919;48.274;12.292;2024-03-25T09:25:40;8.30;99.90
1800;DHT22;919;48.274;12.292;2024-03-25T09:28:15;8.40;99.90
1800;DHT22;919;48.274;12.292;2024-03-25T09:30:41;8.50;99.90
1800;DHT22;919;48.274;12.292;2024-03-25T09:33:07;8.70;99.90
1800;DHT22;919;48.274;12.292;2024-03-25T09:35:34;8.90;99.90
1800;DHT22;919;48.274;12.292;2024-03-25T09:38:00;9.20;99.90
1800;DHT22;919;48.274;12.292;2024-03-25T09:40:26;9.40;99.90
1800;DHT22;919;48.274;12.292;2024-03-25T09:42:56;9.40;99.90
1800;DHT22;919;48.274;12.292;2024-03-25T09:45:24;9.50;99.90
1800;DHT22;919;48.274;12.292;2024-03-25T09:47:51;9.70;99.90
1800;DHT22;919;48.274;12.292;2024-03-25T09:50:17;9.90;99.90
1800;DHT22;919;48.274;12.292;2024-03-25T09:52:45;10.00;99.90
1800;DHT22;919;48.274;12.292;2024-03-25T09:55:11;9.90;99.90
1800;DHT22;919;48.274;12.292;2024-03-25T09:57:37;10.00;99.90
1800;DHT22;919;48.274;12.292;2024-03-25T10:00:04;10.30;99.90
1800;DHT22;919;48.274;12.292;2024-03-25T10:02:31;10.20;99.90
1800;DHT22;919;48.274;12.292;2024-03-25T10:04:57;10.10;99.90
1800;DHT22;919;48.274;12.292;2024-03-25T10:07:24;10.00;99.90
1800;DHT22;919;48.274;12.292;2024-03-25T10:09:51;9.80;99.90
1800;DHT22;919;48.274;12.292;2024-03-25T10:12:17;10.10;99.90
1800;DHT22;919;48.274;12.292;2024-03-25T10:14:43;10.20;99.90
1800;DHT22;919;48.274;12.292;2024-03-25T10:17:09;10.00;99.90
1800;DHT22;919;48.274;12.292;2024-03-25T10:19:35;10.10;99.90
1800;DHT22;919;48.274;12.292;2024-03-25T10:22:03;10.20;99.90
1800;DHT22;919;48.274;12.292;2024-03-25T10:24:37;10.40;99.90
1800;DHT22;919;48.274;12.292;2024-03-25T10:27:04;10.60;99.90
1800;DHT22;919;48.274;12.292;2024-03-25T10:29:30;11.00;99.90
1800;DHT22;919;48.274;12.292;2024-03-25T10:31:59;11.10;99.90
1800;DHT22;919;48.274;12.292;2024-03-25T10:34:25;11.20;99.90
1800;DHT22;919;48.274;12.292;2024-03-25T10:36:55;11.40;99.90
1800;DHT22;919;48.274;12.292;2024-03-25T10:39:27;11.20;99.90
1800;DHT22;919;48.274;12.292;2024-03-25T10:41:55;11.10;99.90
1800;DHT22;919;48.274;12.292;2024-03-25T10:44:23;11.30;99.90
1800;DHT22;919;48.274;12.292;2024-03-25T10:46:54;11.20;99.90
1800;DHT22;919;48.274;12.292;2024-03-25T10:49:26;11.40;99.90
1800;DHT22;919;48.274;12.292;2024-03-25T10:51:54;11.50;99.90
1800;DHT22;919;48.274;12.292;2024-03-25T10:54:20;11.70;99.90
1800;DHT22;919;48.274;12.292;2024-03-25T10:56:48;11.50;99.90
1800;DHT22;919;48.274;12.292;2024-03-25T10:59:15;11.40;99.90
1800;DHT22;919;48.274;12.292;2024-03-25T11:01:42;11.60;99.90
1800;DHT22;919;48.274;12.292;2024-03-25T11:04:08;11.80;99.90
1800;DHT22;919;48.274;12.292;2024-03-25T11:06:34;11.80;99.90
1800;DHT22;919;48.274;12.292;2024-03-25T11:09:00;11.40;99.90
1800;DHT22;919;48.274;12.292;2024-03-25T11:11:31;11.20;99.90
1800;DHT22;919;48.274;12.292;2024-03-25T11:13:57;11.00;99.90
1800;DHT22;919;48.274;12.292;2024-03-25T11:16:28;11.10;99.90
1800;DHT22;919;48.274;12.292;2024-03-25T11:18:59;11.50;99.90
1800;DHT22;919;48.274;12.292;2024-03-25T11:21:26;11.70;99.90
1800;DHT22;919;48.274;12.292;2024-03-25T11:23:51;11.60;99.90
1800;DHT22;919;48.274;12.292;2024-03-25T11:26:21;11.80;99.90
1800;DHT22;919;48.274;12.292;2024-03-25T11:28:50;12.10;99.90
1800;DHT22;919;48.274;12.292;2024-03-25T11:31:17;12.40;99.90
1800;DHT22;919;48.274;12.292;2024-03-25T11:33:45;12.50;99.90
1800;DHT22;919;48.274;12.292;2024-03-25T11:36:13;12.40;99.90
1800;DHT22;919;48.274;12.292;2024-03-25T11:38:40;12.40;99.90
1800;DHT22;919;48.274;12.292;2024-03-25T11:41:07;12.30;99.90
1800;DHT22;919;48.274;12.292;2024-03-25T11:43:33;12.20;99.90
1800;DHT22;919;48.274;12.292;2024-03-25T11:45:59;12.30;99.90
1800;DHT22;919;48.274;12.292;2024-03-25T11:48:26;12.40;99.90
1800;DHT22;919;48.274;12.292;2024-03-25T11:50:54;12.70;99.90
1800;DHT22;919;48.274;12.292;2024-03-25T11:53:21;12.40;99.90
1800;DHT22;919;48.274;12.292;2024-03-25T11:55:48;11.80;99.90
1800;DHT22;919;48.274;12.292;2024-03-25T11:58:14;11.70;99.90
1800;DHT22;919;48.274;12.292;2024-03-25T12:00:44;12.10;99.90
1800;DHT22;919;48.274;12.292;2024-03-25T12:03:10;12.10;99.90
1800;DHT22;919;48.274;12.292;2024-03-25T12:05:36;12.20;99.90
1800;DHT22;919;48.274;12.292;2024-03-25T12:08:02;12.50;99.90
1800;DHT22;919;48.274;12.292;2024-03-25T12:10:29;12.50;99.90
1800;DHT22;919;48.274;12.292;2024-03-25T12:13:13;12.40;99.90
1800;DHT22;919;48.274;12.292;2024-03-25T12:15:39;12.50;99.90
1800;DHT22;919;48.274;12.292;2024-03-25T12:18:06;12.70;99.90
1800;DHT22;919;48.274;12.292;2024-03-25T12:20:32;12.80;99.90
1800;DHT22;919;48.274;12.292;2024-03-25T12:22:58;12.80;99.90
1800;DHT22;919;48.274;12.292;2024-03-25T12:25:24;12.90;99.90
1800;DHT22;919;48.274;12.292;2024-03-25T12:27:51;13.10;99.90
1800;DHT22;919;48.274;12.292;2024-03-25T12:30:19;13.10;99.90
1800;DHT22;919;48.274;12.292;2024-03-25T12:32:45;13.00;99.90
1800;DHT22;919;48.274;12.292;2024-03-25T12:35:14;12.60;99.90
1800;DHT22;919;48.274;12.292;2024-03-25T12:37:41;12.40;99.90
1800;DHT22;919;48.274;12.292;2024-03-25T12:40:09;12.60;99.90
1800;DHT22;919;48.274;12.292;2024-03-25T12:42:36;12.50;99.90
1800;DHT22;919;48.274;12.292;2024-03-25T12:45:04;12.40;99.90
1800;DHT22;919;48.274;12.292;2024-03-25T12:47:36;12.30;99.90
1800;DHT22;919;48.274;12.292;2024-03-25T12:50:02;11.80;99.90
1800;DHT22;919;48.274;12.292;2024-03-25T12:52:28;12.00;99.90
1800;DHT22;919;48.274;12.292;2024-03-25T12:54:54;12.30;99.90
1800;DHT22;919;48.274;12.292;2024-03-25T12:57:19;12.50;99.90
1800;DHT22;919;48.274;12.292;2024-03-25T12:59:46;12.70;99.90
1800;DHT22;919;48.274;12.292;2024-03-25T13:02:13;12.70;99.90
1800;DHT22;919;48.274;12.292;2024-03-25T13:04:39;13.00;99.90
1800;DHT22;919;48.274;12.292;2024-03-25T13:07:05;12.80;99.90
1800;DHT22;919;48.274;12.292;2024-03-25T13:09:31;12.80;99.90
1800;DHT22;919;48.274;12.292;2024-03-25T13:11:57;12.80;99.90
1800;DHT22;919;48.274;12.292;2024-03-25T13:14:24;12.70;99.90
1800;DHT22;919;48.274;12.292;2024-03-25T13:16:49;12.50;99.90
1800;DHT22;919;48.274;12.292;2024-03-25T13:19:17;12.70;99.90
1800;DHT22;919;48.274;12.292;2024-03-25T13:21:43;12.90;99.90
1800;DHT22;919;48.274;12.292;2024-03-25T13:24:09;13.10;99.90
1800;DHT22;919;48.274;12.292;2024-03-25T13:26:35;13.20;99.90
1800;DHT22;919;48.274;12.292;2024-03-25T13:29:01;13.10;99.90
1800;DHT22;919;48.274;12.292;2024-03-25T13:31:27;13.20;99.90
1800;DHT22;919;48.274;12.292;2024-03-25T13:33:53;13.10;99.90
1800;DHT22;919;48.274;12.292;2024-03-25T13:36:21;13.00;99.90
1800;DHT22;919;48.274;12.292;2024-03-25T13:38:47;12.80;99.90
1800;DHT22;919;48.274;12.292;2024-03-25T13:41:13;12.70;99.90
1800;DHT22;919;48.274;12.292;2024-03-25T13:43:42;12.80;99.90
1800;DHT22;919;48.274;12.292;2024-03-25T13:46:08;12.90;99.90
1800;DHT22;919;48.274;12.292;2024-03-25T13:48:34;13.10;99.90
1800;DHT22;919;48.274;12.292;2024-03-25T13:51:00;13.20;99.90
1800;DHT22;919;48.274;12.292;2024-03-25T13:53:27;13.30;99.90
1800;DHT22;919;48.274;12.292;2024-03-25T13:55:53;13.30;99.90
1800;DHT22;919;48.274;12.292;2024-03-25T13:58:19;13.30;99.90
1800;DHT22;919;48.274;12.292;2024-03-25T14:00:44;13.40;99.90
1800;DHT22;919;48.274;12.292;2024-03-25T14:03:11;13.30;99.90
1800;DHT22;919;48.274;12.292;2024-03-25T14:05:36;13.20;99.90
1800;DHT22;919;48.274;12.292;2024-03-25T14:08:03;13.10;99.90
1800;DHT22;919;48.274;12.292;2024-03-25T14:10:30;13.10;99.90
1800;DHT22;919;48.274;12.292;2024-03-25T14:12:56;13.00;99.90
1800;DHT22;919;48.274;12.292;2024-03-25T14:15:22;12.90;99.90
1800;DHT22;919;48.274;12.292;2024-03-25T14:17:48;12.70;99.90
1800;DHT22;919;48.274;12.292;2024-03-25T14:20:14;12.80;99.90
1800;DHT22;919;48.274;12.292;2024-03-25T14:22:40;12.70;99.90
1800;DHT22;919;48.274;12.292;2024-03-25T14:25:07;12.70;99.90
1800;DHT22;919;48.274;12.292;2024-03-25T14:27:34;12.90;99.90
1800;DHT22;919;48.274;12.292;2024-03-25T14:30:00;12.90;99.90
1800;DHT22;919;48.274;12.292;2024-03-25T14:32:26;12.40;99.90
1800;DHT22;919;48.274;12.292;2024-03-25T14:34:52;12.50;99.90
1800;DHT22;919;48.274;12.292;2024-03-25T14:37:18;12.40;99.90
1800;DHT22;919;48.274;12.292;2024-03-25T14:39:45;12.40;99.90
1800;DHT22;919;48.274;12.292;2024-03-25T14:42:11;12.20;99.90
1800;DHT22;919;48.274;12.292;2024-03-25T14:44:45;12.00;99.90
1800;DHT22;919;48.274;12.292;2024-03-25T14:47:11;12.30;99.90
1800;DHT22;919;48.274;12.292;2024-03-25T14:49:37;12.60;99.90
1800;DHT22;919;48.274;12.292;2024-03-25T14:52:04;12.60;99.90
1800;DHT22;919;48.274;12.292;2024-03-25T14:54:33;12.80;99.90
1800;DHT22;919;48.274;12.292;2024-03-25T14:56:59;12.90;99.90
1800;DHT22;919;48.274;12.292;2024-03-25T14:59:26;13.10;99.90
1800;DHT22;919;48.274;12.292;2024-03-25T15:01:53;13.10;99.90
1800;DHT22;919;48.274;12.292;2024-03-25T15:04:19;13.10;99.90
1800;DHT22;919;48.274;12.292;2024-03-25T15:06:45;13.10;99.90
1800;DHT22;919;48.274;12.292;2024-03-25T15:09:11;13.00;99.90
1800;DHT22;919;48.274;12.292;2024-03-25T15:11:38;12.90;99.90
1800;DHT22;919;48.274;12.292;2024-03-25T15:14:04;12.80;99.90
1800;DHT22;919;48.274;12.292;2024-03-25T15:16:30;12.60;99.90
1800;DHT22;919;48.274;12.292;2024-03-25T15:18:57;12.40;99.90
1800;DHT22;919;48.274;12.292;2024-03-25T15:21:23;12.30;99.90
1800;DHT22;919;48.274;12.292;2024-03-25T15:23:49;12.20;99.90
1800;DHT22;919;48.274;12.292;2024-03-25T15:26:15;11.80;99.90
1800;DHT22;919;48.274;12.292;2024-03-25T15:28:41;11.50;99.90
1800;DHT22;919;48.274;12.292;2024-03-25T15:31:07;11.20;99.90
1800;DHT22;919;48.274;12.292;2024-03-25T15:33:33;11.20;99.90
1800;DHT22;919;48.274;12.292;2024-03-25T15:36:00;11.10;99.90
1800;DHT22;919;48.274;12.292;2024-03-25T15:38:26;11.10;99.90
1800;DHT22;919;48.274;12.292;2024-03-25T15:40:52;11.00;99.90
1800;DHT22;919;48.274;12.292;2024-03-25T15:43:18;10.90;99.90
1800;DHT22;919;48.274;12.292;2024-03-25T15:45:54;10.70;99.90
1800;DHT22;919;48.274;12.292;2024-03-25T15:48:19;10.60;99.90
1800;DHT22;919;48.274;12.292;2024-03-25T15:50:45;10.60;99.90
1800;DHT22;919;48.274;12.292;2024-03-25T15:53:14;10.70;99.90
1800;DHT22;919;48.274;12.292;2024-03-25T15:55:41;10.70;99.90
1800;DHT22;919;48.274;12.292;2024-03-25T15:58:08;10.80;99.90
1800;DHT22;919;48.274;12.292;2024-03-25T16:00:34;10.70;99.90
1800;DHT22;919;48.274;12.292;2024-03-25T16:03:01;10.50;99.90
1800;DHT22;919;48.274;12.292;2024-03-25T16:05:27;10.40;99.90
1800;DHT22;919;48.274;12.292;2024-03-25T16:07:53;10.30;99.90